Aeroporto :
LOGIN :

Iscrizione | Disclaimer

   EN    FR    IT 

 










Sommario :    VFR   VFR Marginale   IFR   IFR Intensivo   IFR Molto Intensivo
Visibilità : 
Base nubi : 
>= 8 km
>= 3000ft
5 / 8 km
1000 / 3000 ft
1500m / 5 km
500 / 1000 ft
800 / 1500m
200 / 500 ft
< 800m
< 200 ft
Simboli :   Temporali  Nebbia  Neve Forte  Precipitazioni Forti  Vento > 20 kt
SIGMETs :   Varie  Temporali  Ghiacco  Turbolenza  Onda orograficha  Ceneri Vulcaniche







- Altitudine del aeroporto : 1504 ft
- Codice IATA : PNA


LEPP - Noain Pamplona

ULTIMO METAR :
  • 180630Z VRB02KT CAVOK 20/13 Q1013

METARs OBSOLETI :
  • 180600Z VRB02KT CAVOK 18/12 Q1013
  • 180530Z 33001KT CAVOK 16/12 Q1013
  • 180500Z 36004KT 330V030 CAVOK 16/12 Q1013
  • 180430Z 25002KT CAVOK 16/12 Q1013
  • 180400Z 01003KT CAVOK 17/12 Q1013

TAF TAF LEPP
Valido dal 18 a 03 ore il 19 a 03 ore UTC


180200Z 1803/1903 31004KT 9999 FEW040 TX32/1815Z TN18/1805Z
BECMG 1807/1809 16014KT
TEMPO 1809/1818 17018G30KT
TEMPO 1818/1824 33010KT
Nessun NOTAM noto per questo aeroporto.



MetMap, La meteo Aeronautica in un colpo d'occhio ! - Copyright ORBIFLY Dicembre 2007 - Disclaimer

ORBIFLY MET'MAP TEAM :

Programmazione e sviluppo : Alexandra Zaïnal
Concezione e sviluppo : Baudouin d'Aumeries
Co-Programmazione e sviluppo : Marc-Olivier Méhu
Supporto tecnico e logistico : Manuel Goepfert
Aiuto per la traduzione : Arnaldo La Scala

Contatto : metmap@orbifly.com




FONTI E CREDITI :

   NOAA